createdAt,value
2022-11-29T00:01:33.935Z,17.88
2022-11-29T00:04:02.296Z,18.95
2022-11-29T00:06:31.891Z,20.83
2022-11-29T00:09:03.379Z,22.60
2022-11-29T00:11:53.008Z,18.42
2022-11-29T00:14:21.596Z,17.98
2022-11-29T00:16:52.762Z,29.20
2022-11-29T00:19:21.043Z,20.08
2022-11-29T00:21:49.142Z,20.02
2022-11-29T00:24:20.888Z,20.00
2022-11-29T00:26:48.895Z,20.45
2022-11-29T00:29:16.673Z,27.48
2022-11-29T00:31:44.743Z,21.13
2022-11-29T00:34:13.222Z,20.85
2022-11-29T00:36:41.141Z,20.20
2022-11-29T00:39:11.577Z,18.17
2022-11-29T00:41:41.171Z,24.70
2022-11-29T00:44:09.823Z,19.98
2022-11-29T00:49:06.974Z,20.20
2022-11-29T00:51:34.824Z,23.92
2022-11-29T00:54:02.688Z,19.65
2022-11-29T00:56:30.544Z,17.70
2022-11-29T00:58:59.661Z,18.42
2022-11-29T01:01:27.485Z,20.98
2022-11-29T01:03:55.292Z,23.67
2022-11-29T01:06:23.023Z,19.83
2022-11-29T01:08:50.776Z,25.77
2022-11-29T01:11:21.784Z,16.45
2022-11-29T01:13:50.304Z,23.80
2022-11-29T01:16:19.445Z,20.40
2022-11-29T01:18:47.426Z,15.93
2022-11-29T01:21:17.232Z,17.08
2022-11-29T01:23:45.741Z,17.40
2022-11-29T01:26:15.273Z,20.83
2022-11-29T01:28:43.913Z,20.70
2022-11-29T01:31:15.165Z,17.13
2022-11-29T01:33:44.457Z,16.42
2022-11-29T01:36:14.048Z,15.93
2022-11-29T01:38:43.490Z,20.05
2022-11-29T01:41:15.530Z,9.63
2022-11-29T01:43:57.882Z,18.83
2022-11-29T01:46:27.076Z,20.05
2022-11-29T01:49:01.279Z,26.80
2022-11-29T01:51:30.123Z,21.67
2022-11-29T01:53:58.404Z,13.52
2022-11-29T01:56:26.922Z,16.20
2022-11-29T01:58:54.788Z,14.07
2022-11-29T02:01:22.790Z,17.15
2022-11-29T02:03:50.773Z,16.33
2022-11-29T02:06:19.887Z,17.92
2022-11-29T02:08:47.635Z,17.10
2022-11-29T02:11:43.129Z,19.75
2022-11-29T02:14:23.625Z,18.23
2022-11-29T02:16:59.023Z,19.23
2022-11-29T02:19:49.892Z,18.75
2022-11-29T02:22:25.512Z,20.52
2022-11-29T02:25:11.752Z,17.67
2022-11-29T02:28:11.139Z,15.20
2022-11-29T02:31:02.194Z,16.25
2022-11-29T02:34:07.512Z,21.02
2022-11-29T02:36:59.160Z,13.10
2022-11-29T02:39:50.986Z,18.45
2022-11-29T02:42:54.392Z,16.77
2022-11-29T02:45:42.752Z,15.27
2022-11-29T02:48:24.491Z,20.13
2022-11-29T02:50:59.392Z,14.25
2022-11-29T02:53:33.965Z,18.60
2022-11-29T02:56:12.174Z,15.48
2022-11-29T02:58:51.373Z,13.80
2022-11-29T03:01:25.443Z,11.90
2022-11-29T03:04:01.067Z,13.05
2022-11-29T03:06:37.694Z,12.98
2022-11-29T03:09:12.659Z,8.55
2022-11-29T03:11:48.711Z,17.00
2022-11-29T03:14:24.839Z,15.48
2022-11-29T03:17:04.497Z,8.88
2022-11-29T03:19:47.425Z,10.70
2022-11-29T03:22:27.057Z,10.68
2022-11-29T03:25:00.535Z,10.70
2022-11-29T03:27:37.369Z,13.25
2022-11-29T03:30:12.723Z,12.27
2022-11-29T03:32:49.499Z,17.27
2022-11-29T03:35:23.291Z,11.95
2022-11-29T03:37:59.690Z,10.93
2022-11-29T03:40:32.413Z,13.30
2022-11-29T03:43:05.144Z,14.05
2022-11-29T03:45:39.709Z,12.80
2022-11-29T03:48:11.717Z,13.40
2022-11-29T03:50:43.461Z,13.15
2022-11-29T03:53:19.165Z,17.02
2022-11-29T03:55:54.567Z,8.10
2022-11-29T03:58:34.709Z,11.95
2022-11-29T04:01:34.751Z,8.52
2022-11-29T04:04:41.316Z,11.20
2022-11-29T04:07:26.675Z,12.60
2022-11-29T04:10:10.670Z,11.93
2022-11-29T04:13:14.035Z,7.78
2022-11-29T04:16:07.553Z,10.38
2022-11-29T04:19:03.945Z,13.93
2022-11-29T04:21:34.631Z,13.32
2022-11-29T04:24:34.138Z,13.05
2022-11-29T04:27:35.747Z,9.90
2022-11-29T04:30:14.814Z,9.43
2022-11-29T04:33:18.076Z,13.43
2022-11-29T04:36:07.583Z,8.75
2022-11-29T04:38:54.413Z,9.00
2022-11-29T04:41:46.548Z,12.32
2022-11-29T04:44:51.579Z,7.20
2022-11-29T04:47:38.826Z,13.18
2022-11-29T04:50:21.448Z,8.55
2022-11-29T04:53:11.039Z,13.95
2022-11-29T04:55:46.608Z,14.38
2022-11-29T04:58:22.231Z,10.95
2022-11-29T05:01:00.716Z,11.48
2022-11-29T05:03:39.652Z,11.43
2022-11-29T05:06:24.445Z,13.32
2022-11-29T05:09:00.645Z,8.15
2022-11-29T05:11:38.963Z,14.75
2022-11-29T05:14:16.223Z,14.03
2022-11-29T05:16:50.041Z,11.82
2022-11-29T05:19:52.776Z,13.27
2022-11-29T05:22:30.716Z,12.90
2022-11-29T05:25:13.861Z,14.68
2022-11-29T05:27:46.236Z,10.05
2022-11-29T05:30:15.918Z,13.85
2022-11-29T05:32:56.573Z,11.93
2022-11-29T05:35:35.543Z,15.70
2022-11-29T05:38:13.432Z,11.82
2022-11-29T05:40:51.243Z,16.13
2022-11-29T05:43:48.616Z,10.75
2022-11-29T05:46:23.006Z,13.57
2022-11-29T05:49:00.487Z,11.50
2022-11-29T05:51:38.265Z,13.38
2022-11-29T05:54:15.633Z,13.55
2022-11-29T05:56:51.708Z,12.98
2022-11-29T05:59:23.208Z,12.65
2022-11-29T06:01:58.942Z,15.40
2022-11-29T06:04:41.087Z,11.93
2022-11-29T06:07:17.125Z,11.43
2022-11-29T06:09:50.073Z,14.75
2022-11-29T06:12:21.731Z,23.55
2022-11-29T06:15:17.439Z,10.10
2022-11-29T06:18:09.495Z,12.43
2022-11-29T06:21:11.178Z,13.07
2022-11-29T06:23:53.579Z,12.90
2022-11-29T06:26:34.994Z,12.90
2022-11-29T06:29:19.061Z,12.55
2022-11-29T06:31:51.309Z,14.32
2022-11-29T06:34:30.717Z,8.63
2022-11-29T06:37:06.122Z,14.57
2022-11-29T06:39:34.541Z,12.60
2022-11-29T06:42:02.367Z,10.63
2022-11-29T06:44:30.671Z,13.77
2022-11-29T06:47:05.086Z,15.18
2022-11-29T06:49:39.969Z,13.93
2022-11-29T06:52:20.202Z,14.30
2022-11-29T06:55:07.639Z,12.60
2022-11-29T06:57:47.188Z,15.82
2022-11-29T07:00:20.595Z,13.68
2022-11-29T07:03:16.217Z,13.80
2022-11-29T07:05:44.649Z,13.32
2022-11-29T07:08:18.651Z,9.77
2022-11-29T07:10:49.674Z,9.45
2022-11-29T07:13:19.126Z,14.15
2022-11-29T07:15:57.484Z,14.43
2022-11-29T07:18:33.200Z,16.90
2022-11-29T07:21:11.662Z,12.70
2022-11-29T07:23:48.366Z,14.65
2022-11-29T07:26:24.504Z,16.38
2022-11-29T07:29:03.805Z,18.85
2022-11-29T07:34:15.069Z,11.82
2022-11-29T07:36:51.622Z,17.65
2022-11-29T07:39:30.113Z,13.40
2022-11-29T07:42:06.721Z,19.63
2022-11-29T07:44:39.713Z,14.85
2022-11-29T07:47:09.308Z,10.07
2022-11-29T07:49:37.114Z,16.40
2022-11-29T07:52:04.875Z,14.50
2022-11-29T07:54:34.030Z,16.15
2022-11-29T07:57:01.815Z,16.38
2022-11-29T07:59:29.543Z,16.15
2022-11-29T08:01:57.380Z,21.90
2022-11-29T08:04:25.235Z,20.88
2022-11-29T08:06:53.021Z,19.27
2022-11-29T08:09:21.078Z,22.35
2022-11-29T08:11:50.172Z,17.42
2022-11-29T08:14:17.989Z,19.05
2022-11-29T08:16:45.872Z,21.85
2022-11-29T08:19:13.745Z,19.30
2022-11-29T08:21:46.813Z,18.25
2022-11-29T08:24:14.637Z,21.23
2022-11-29T08:26:42.478Z,24.52
2022-11-29T08:29:11.644Z,28.40
2022-11-29T08:31:39.493Z,29.15
2022-11-29T08:34:08.246Z,28.58
2022-11-29T08:36:36.022Z,31.88
2022-11-29T08:39:09.125Z,35.22
2022-11-29T08:41:37.667Z,45.67
2022-11-29T08:44:06.033Z,36.50
2022-11-29T08:46:53.153Z,38.80
2022-11-29T08:49:20.943Z,38.13
2022-11-29T08:51:48.737Z,29.63
2022-11-29T08:54:15.570Z,44.83
2022-11-29T08:57:23.649Z,37.80
2022-11-29T08:59:31.136Z,33.08
2022-11-29T09:02:00.449Z,35.83
2022-11-29T09:04:28.252Z,38.80
2022-11-29T09:06:56.014Z,40.00
2022-11-29T09:09:23.797Z,24.92
2022-11-29T09:11:51.831Z,38.83
2022-11-29T09:14:21.941Z,27.85
2022-11-29T09:16:49.772Z,35.38
2022-11-29T09:19:18.984Z,34.20
2022-11-29T09:21:46.782Z,40.30
2022-11-29T09:24:14.688Z,30.77
2022-11-29T09:26:42.675Z,27.42
2022-11-29T09:29:11.909Z,30.70
2022-11-29T09:31:39.895Z,33.38
2022-11-29T09:34:07.892Z,30.80
2022-11-29T09:36:37.052Z,38.13
2022-11-29T09:39:04.954Z,37.35
2022-11-29T09:41:59.315Z,30.67
2022-11-29T09:44:36.932Z,32.28
2022-11-29T09:47:17.517Z,38.67
2022-11-29T09:50:02.124Z,32.10
2022-11-29T09:52:42.170Z,34.05
2022-11-29T09:55:36.286Z,43.45
2022-11-29T09:58:06.891Z,43.22
2022-11-29T10:00:39.222Z,43.33
2022-11-29T10:03:15.369Z,37.65
2022-11-29T10:05:47.630Z,38.70
2022-11-29T10:08:22.356Z,41.60
2022-11-29T10:10:53.519Z,31.83
2022-11-29T10:13:24.304Z,39.45
2022-11-29T10:15:55.789Z,51.03
2022-11-29T10:18:27.042Z,44.13
2022-11-29T10:20:58.554Z,33.10
2022-11-29T10:23:33.926Z,38.50
2022-11-29T10:26:02.078Z,41.13
2022-11-29T10:28:32.013Z,35.03
2022-11-29T10:31:09.576Z,32.92
2022-11-29T10:33:40.693Z,39.60
2022-11-29T10:36:17.192Z,35.28
2022-11-29T10:38:48.547Z,38.10
2022-11-29T10:41:22.182Z,40.05
2022-11-29T10:43:51.944Z,39.75
2022-11-29T10:46:28.218Z,46.92
2022-11-29T10:48:57.065Z,44.83
2022-11-29T10:51:25.409Z,43.05
2022-11-29T10:53:55.564Z,38.50
2022-11-29T10:56:29.412Z,40.38
2022-11-29T10:59:02.960Z,45.53
2022-11-29T11:01:31.688Z,53.03
2022-11-29T11:04:04.248Z,46.85
2022-11-29T11:06:46.031Z,51.35
2022-11-29T11:09:20.869Z,44.72
2022-11-29T11:11:53.748Z,43.80
2022-11-29T11:14:24.926Z,46.30
2022-11-29T11:16:53.935Z,47.70
2022-11-29T11:19:28.376Z,46.17
2022-11-29T11:21:57.022Z,46.42
2022-11-29T11:24:28.874Z,41.22
2022-11-29T11:26:57.397Z,50.80
2022-11-29T11:29:27.519Z,50.92
2022-11-29T11:31:57.939Z,44.83
2022-11-29T11:34:29.539Z,51.90
2022-11-29T11:37:26.141Z,53.30
2022-11-29T11:39:57.390Z,47.88
2022-11-29T11:42:39.252Z,60.65
2022-11-29T11:45:32.802Z,46.00
2022-11-29T11:48:05.101Z,43.17
2022-11-29T11:50:35.835Z,48.13
2022-11-29T11:53:06.563Z,49.13
2022-11-29T11:55:39.244Z,44.50
2022-11-29T11:58:16.165Z,65.85
2022-11-29T12:01:03.380Z,54.88
2022-11-29T12:03:49.171Z,50.38
2022-11-29T12:06:47.293Z,51.42
2022-11-29T12:09:31.765Z,52.40
2022-11-29T12:12:10.380Z,42.10
2022-11-29T12:14:46.029Z,40.30
2022-11-29T12:17:21.620Z,46.97
2022-11-29T12:20:04.305Z,42.78
2022-11-29T12:22:42.662Z,52.13
2022-11-29T12:25:19.432Z,43.00
2022-11-29T12:27:50.010Z,46.45
2022-11-29T12:30:18.193Z,40.88
2022-11-29T12:33:02.530Z,39.85
2022-11-29T12:35:45.726Z,33.78
2022-11-29T12:38:25.650Z,36.50
2022-11-29T12:41:01.983Z,45.47
2022-11-29T12:43:42.705Z,37.63
2022-11-29T12:46:14.849Z,40.47
2022-11-29T12:48:50.863Z,42.45
2022-11-29T12:51:28.848Z,40.17
2022-11-29T12:54:11.847Z,35.53
2022-11-29T12:56:47.627Z,38.03
2022-11-29T12:59:29.495Z,35.42
2022-11-29T13:02:18.517Z,43.15
2022-11-29T13:04:59.382Z,41.67
2022-11-29T13:07:39.327Z,35.47
2022-11-29T13:10:37.394Z,34.47
2022-11-29T13:13:17.680Z,40.70
2022-11-29T13:15:55.614Z,38.92
2022-11-29T13:18:28.475Z,44.30
2022-11-29T13:21:02.422Z,38.10
2022-11-29T13:23:45.753Z,37.67
2022-11-29T13:26:26.593Z,43.25
2022-11-29T13:28:55.530Z,46.33
2022-11-29T13:31:25.782Z,40.83
2022-11-29T13:33:59.574Z,37.92
2022-11-29T13:36:38.560Z,43.45
2022-11-29T13:39:16.820Z,41.88
2022-11-29T13:41:51.965Z,48.10
2022-11-29T13:44:28.920Z,39.05
2022-11-29T13:47:06.531Z,43.55
2022-11-29T13:50:30.094Z,39.47
2022-11-29T13:53:04.913Z,40.80
2022-11-29T13:55:34.157Z,44.83
2022-11-29T13:58:16.780Z,38.05
2022-11-29T14:00:51.403Z,43.10
2022-11-29T14:03:31.165Z,37.92
2022-11-29T14:06:18.422Z,38.38
2022-11-29T14:09:18.539Z,37.45
2022-11-29T14:11:50.134Z,36.60
2022-11-29T14:14:26.867Z,38.83
2022-11-29T14:16:58.922Z,37.03
2022-11-29T14:19:33.369Z,36.90
2022-11-29T14:22:19.879Z,41.60
2022-11-29T14:25:00.171Z,36.75
2022-11-29T14:27:57.798Z,36.13
2022-11-29T14:30:47.385Z,41.47
2022-11-29T14:33:32.917Z,48.30
2022-11-29T14:36:19.805Z,39.38
2022-11-29T14:38:54.874Z,38.78
2022-11-29T14:41:31.940Z,36.03
2022-11-29T14:44:15.287Z,40.25
2022-11-29T14:46:43.761Z,45.75
2022-11-29T14:49:23.032Z,42.35
2022-11-29T14:54:37.883Z,36.53
2022-11-29T14:57:50.869Z,42.65
2022-11-29T15:00:20.418Z,41.65
2022-11-29T15:02:50.728Z,40.72
2022-11-29T15:05:21.530Z,44.92
2022-11-29T15:07:58.148Z,42.90
2022-11-29T15:10:29.993Z,48.63
2022-11-29T15:13:00.635Z,47.75
2022-11-29T15:15:54.326Z,44.60
2022-11-29T15:18:38.710Z,53.42
2022-11-29T15:21:18.863Z,50.95
2022-11-29T15:23:47.985Z,52.63
2022-11-29T15:26:19.265Z,63.03
2022-11-29T15:28:47.134Z,66.05
2022-11-29T15:31:17.263Z,50.15
2022-11-29T15:33:47.023Z,60.00
2022-11-29T15:36:18.931Z,53.88
2022-11-29T15:38:50.335Z,50.88
2022-11-29T15:41:23.686Z,54.90
2022-11-29T15:43:59.052Z,53.35
2022-11-29T15:46:28.849Z,59.35
2022-11-29T15:48:57.357Z,52.85
2022-11-29T15:51:30.360Z,50.57
2022-11-29T15:54:13.479Z,46.63
2022-11-29T15:56:46.792Z,49.58
2022-11-29T15:59:30.689Z,54.67
2022-11-29T16:02:02.536Z,57.03
2022-11-29T16:04:31.409Z,56.72
2022-11-29T16:06:59.318Z,59.60
2022-11-29T16:09:35.556Z,54.55
2022-11-29T16:12:04.153Z,46.08
2022-11-29T16:14:32.157Z,51.72
2022-11-29T16:17:03.330Z,58.50
2022-11-29T16:19:33.310Z,55.85
2022-11-29T16:22:05.029Z,64.65
2022-11-29T16:24:35.078Z,54.35
2022-11-29T16:27:03.219Z,65.05
2022-11-29T16:29:34.872Z,61.08
2022-11-29T16:32:14.303Z,70.82
2022-11-29T16:34:44.530Z,63.55
2022-11-29T16:37:20.007Z,59.17
2022-11-29T16:39:50.996Z,59.67
2022-11-29T16:42:26.079Z,62.13
2022-11-29T16:45:23.539Z,58.97
2022-11-29T16:47:58.035Z,79.22
2022-11-29T16:50:26.725Z,70.40
2022-11-29T16:52:56.875Z,63.75
2022-11-29T16:55:26.392Z,68.63
2022-11-29T16:57:54.250Z,71.15
2022-11-29T17:00:30.896Z,67.18
2022-11-29T17:02:59.075Z,88.32
2022-11-29T17:05:27.303Z,67.00
2022-11-29T17:07:55.556Z,142.68
2022-11-29T17:10:26.571Z,72.40
2022-11-29T17:12:54.336Z,73.75
2022-11-29T17:15:22.182Z,67.47
2022-11-29T17:17:50.273Z,75.43
2022-11-29T17:20:18.253Z,63.53
2022-11-29T17:22:46.082Z,53.38
2022-11-29T17:25:13.983Z,55.08
2022-11-29T17:27:43.082Z,54.85
2022-11-29T17:30:12.240Z,51.13
2022-11-29T17:32:40.084Z,49.00
2022-11-29T17:35:08.399Z,44.08
2022-11-29T17:37:36.322Z,44.75
2022-11-29T17:40:04.329Z,47.22
2022-11-29T17:42:32.096Z,51.90
2022-11-29T17:45:01.520Z,51.13
2022-11-29T17:49:58.091Z,47.88
2022-11-29T17:52:27.441Z,48.90
2022-11-29T17:57:22.862Z,54.97
2022-11-29T17:59:50.744Z,46.22
2022-11-29T18:02:19.949Z,50.05
2022-11-29T18:07:17.136Z,42.53
2022-11-29T18:09:46.691Z,39.65
2022-11-29T18:12:14.862Z,45.53
2022-11-29T18:14:42.724Z,44.58
2022-11-29T18:17:10.644Z,47.70
2022-11-29T18:19:39.854Z,41.60
2022-11-29T18:22:08.378Z,46.67
2022-11-29T18:24:36.288Z,39.63
2022-11-29T18:27:04.242Z,44.95
2022-11-29T18:29:37.633Z,49.38
2022-11-29T18:32:06.918Z,48.97
2022-11-29T18:34:34.793Z,50.67
2022-11-29T18:37:04.067Z,51.08
2022-11-29T18:39:31.910Z,53.20
2022-11-29T18:41:59.756Z,49.28
2022-11-29T18:44:29.475Z,43.80
2022-11-29T18:46:58.456Z,51.20
2022-11-29T18:49:26.364Z,49.03
2022-11-29T18:51:54.224Z,46.20
2022-11-29T18:54:23.487Z,52.33
2022-11-29T18:56:51.951Z,47.75
2022-11-29T18:59:19.851Z,45.27
2022-11-29T19:01:48.867Z,48.67
2022-11-29T19:04:18.640Z,46.60
2022-11-29T19:06:46.526Z,45.88
2022-11-29T19:09:16.071Z,43.28
2022-11-29T19:11:45.372Z,41.38
2022-11-29T19:16:43.411Z,36.10
2022-11-29T19:19:11.878Z,44.22
2022-11-29T19:21:40.698Z,41.40
2022-11-29T19:24:13.790Z,48.05
2022-11-29T19:26:44.490Z,42.55
2022-11-29T19:29:14.765Z,35.05
2022-11-29T19:31:43.116Z,44.88
2022-11-29T19:34:11.179Z,39.42
2022-11-29T19:36:43.010Z,45.70
2022-11-29T19:39:12.803Z,41.53
2022-11-29T19:41:40.820Z,40.13
2022-11-29T19:44:09.493Z,42.92
2022-11-29T19:46:40.996Z,42.53
2022-11-29T19:49:10.191Z,38.72
2022-11-29T19:51:38.524Z,39.88
2022-11-29T19:54:08.487Z,41.72
2022-11-29T19:56:36.801Z,41.00
2022-11-29T19:59:04.671Z,53.88
2022-11-29T20:01:40.088Z,45.38
2022-11-29T20:04:10.643Z,35.22
2022-11-29T20:06:38.936Z,44.33
2022-11-29T20:09:07.532Z,46.95
2022-11-29T20:11:35.474Z,44.05
2022-11-29T20:14:05.219Z,50.20
2022-11-29T20:16:34.261Z,55.53
2022-11-29T20:19:02.713Z,47.28
2022-11-29T20:21:33.766Z,46.13
2022-11-29T20:24:03.179Z,43.92
2022-11-29T20:26:33.399Z,38.88
2022-11-29T20:29:02.061Z,46.55
2022-11-29T20:31:30.749Z,59.75
2022-11-29T20:33:59.036Z,48.95
2022-11-29T20:36:40.742Z,53.53
2022-11-29T20:39:18.405Z,45.72
2022-11-29T20:41:56.053Z,50.40
2022-11-29T20:44:36.031Z,62.95
2022-11-29T20:47:12.828Z,106.85
2022-11-29T20:49:41.128Z,76.18
2022-11-29T20:52:18.887Z,46.65
2022-11-29T20:54:46.741Z,55.28
2022-11-29T20:57:14.791Z,48.85
2022-11-29T20:59:42.749Z,60.80
2022-11-29T21:02:10.626Z,52.38
2022-11-29T21:04:38.515Z,56.25
2022-11-29T21:07:06.374Z,51.35
2022-11-29T21:09:35.561Z,49.92
2022-11-29T21:12:03.888Z,53.53
2022-11-29T21:14:31.955Z,44.88
2022-11-29T21:17:00.538Z,48.50
2022-11-29T21:22:06.050Z,64.28
2022-11-29T21:24:46.008Z,63.97
2022-11-29T21:27:18.689Z,53.28
2022-11-29T21:29:47.079Z,55.83
2022-11-29T21:32:22.276Z,67.15
2022-11-29T21:34:50.415Z,73.72
2022-11-29T21:37:21.137Z,58.75
2022-11-29T21:39:52.189Z,57.60
2022-11-29T21:42:20.528Z,49.40
2022-11-29T21:44:48.925Z,55.22
2022-11-29T21:47:16.992Z,53.75
2022-11-29T21:49:46.314Z,54.35
2022-11-29T21:54:51.383Z,44.13
2022-11-29T21:57:19.278Z,49.38
2022-11-29T21:59:47.174Z,51.20
2022-11-29T22:02:15.273Z,53.03
2022-11-29T22:04:43.187Z,46.05
2022-11-29T22:07:11.181Z,48.50
2022-11-29T22:09:39.044Z,51.35
2022-11-29T22:12:26.219Z,54.95
2022-11-29T22:14:56.286Z,54.55
2022-11-29T22:17:24.113Z,44.63
2022-11-29T22:19:51.995Z,53.67
2022-11-29T22:22:19.980Z,48.22
2022-11-29T22:24:48.037Z,50.97
2022-11-29T22:27:18.589Z,52.58
2022-11-29T22:29:46.701Z,44.83
2022-11-29T22:32:14.792Z,44.55
2022-11-29T22:34:43.001Z,47.05
2022-11-29T22:37:12.422Z,47.85
2022-11-29T22:42:08.338Z,50.42
2022-11-29T22:44:37.583Z,48.15
2022-11-29T22:47:05.595Z,50.10
2022-11-29T22:49:33.974Z,39.70
2022-11-29T22:52:01.784Z,45.20
2022-11-29T22:54:29.678Z,52.88
2022-11-29T22:56:57.523Z,49.08
2022-11-29T22:59:25.619Z,51.33
2022-11-29T23:01:54.875Z,52.22
2022-11-29T23:04:22.840Z,53.50
2022-11-29T23:06:50.661Z,49.40
2022-11-29T23:09:22.096Z,55.75
2022-11-29T23:11:52.012Z,63.40
2022-11-29T23:14:20.339Z,57.75
2022-11-29T23:16:49.177Z,59.92
2022-11-29T23:19:18.771Z,56.40
2022-11-29T23:21:47.221Z,59.40
2022-11-29T23:24:16.017Z,66.23
2022-11-29T23:26:45.715Z,52.85
2022-11-29T23:29:15.805Z,48.75
2022-11-29T23:31:43.894Z,53.42
2022-11-29T23:34:11.841Z,58.63
2022-11-29T23:36:41.076Z,50.80
2022-11-29T23:39:08.952Z,52.17
2022-11-29T23:41:37.326Z,59.13
2022-11-29T23:44:05.702Z,57.20
2022-11-29T23:46:35.346Z,63.25
2022-11-29T23:49:03.165Z,55.92
2022-11-29T23:51:31.172Z,55.40
2022-11-29T23:54:00.375Z,56.72
2022-11-29T23:56:28.237Z,50.92
2022-11-29T23:58:56.147Z,61.33
